sensor_id;sensor_type;location;lat;lon;timestamp;P1;durP1;ratioP1;P2;durP2;ratioP2
52438;SDS011;38359;53.150;6.504;2022-07-23T00:01:57;6.05;;;5.50;;
52438;SDS011;38359;53.150;6.504;2022-07-23T00:04:23;8.00;;;5.57;;
52438;SDS011;38359;53.150;6.504;2022-07-23T00:06:49;9.82;;;5.63;;
52438;SDS011;38359;53.150;6.504;2022-07-23T00:09:15;7.35;;;5.35;;
52438;SDS011;38359;53.150;6.504;2022-07-23T00:11:40;7.15;;;6.40;;
52438;SDS011;38359;53.150;6.504;2022-07-23T00:14:06;10.32;;;5.00;;
52438;SDS011;38359;53.150;6.504;2022-07-23T00:16:32;7.07;;;5.10;;
52438;SDS011;38359;53.150;6.504;2022-07-23T00:18:58;7.93;;;5.28;;
52438;SDS011;38359;53.150;6.504;2022-07-23T00:21:29;5.55;;;5.00;;
52438;SDS011;38359;53.150;6.504;2022-07-23T00:23:55;8.57;;;5.18;;
52438;SDS011;38359;53.150;6.504;2022-07-23T00:26:20;6.60;;;5.20;;
52438;SDS011;38359;53.150;6.504;2022-07-23T00:28:47;12.43;;;5.75;;
52438;SDS011;38359;53.150;6.504;2022-07-23T00:31:13;8.35;;;4.97;;
52438;SDS011;38359;53.150;6.504;2022-07-23T00:33:39;9.00;;;5.32;;
52438;SDS011;38359;53.150;6.504;2022-07-23T00:36:04;8.52;;;5.40;;
52438;SDS011;38359;53.150;6.504;2022-07-23T00:38:31;8.32;;;5.45;;
52438;SDS011;38359;53.150;6.504;2022-07-23T00:40:56;11.82;;;5.63;;
52438;SDS011;38359;53.150;6.504;2022-07-23T00:43:22;9.50;;;5.68;;
52438;SDS011;38359;53.150;6.504;2022-07-23T00:45:50;8.75;;;6.10;;
52438;SDS011;38359;53.150;6.504;2022-07-23T00:48:16;7.55;;;5.40;;
52438;SDS011;38359;53.150;6.504;2022-07-23T00:50:42;11.20;;;6.15;;
52438;SDS011;38359;53.150;6.504;2022-07-23T00:53:09;10.07;;;6.15;;
52438;SDS011;38359;53.150;6.504;2022-07-23T00:55:35;7.45;;;6.00;;
52438;SDS011;38359;53.150;6.504;2022-07-23T00:58:01;11.32;;;5.50;;
52438;SDS011;38359;53.150;6.504;2022-07-23T01:00:27;8.85;;;5.65;;
52438;SDS011;38359;53.150;6.504;2022-07-23T01:02:54;9.63;;;5.72;;
52438;SDS011;38359;53.150;6.504;2022-07-23T01:05:19;9.73;;;5.75;;
52438;SDS011;38359;53.150;6.504;2022-07-23T01:07:48;8.93;;;5.32;;
52438;SDS011;38359;53.150;6.504;2022-07-23T01:10:14;7.90;;;5.43;;
52438;SDS011;38359;53.150;6.504;2022-07-23T01:12:57;7.43;;;5.28;;
52438;SDS011;38359;53.150;6.504;2022-07-23T01:15:32;8.55;;;5.10;;
52438;SDS011;38359;53.150;6.504;2022-07-23T01:18:02;12.00;;;6.18;;
52438;SDS011;38359;53.150;6.504;2022-07-23T01:20:30;9.20;;;5.22;;
52438;SDS011;38359;53.150;6.504;2022-07-23T01:22:56;8.45;;;5.20;;
52438;SDS011;38359;53.150;6.504;2022-07-23T01:25:22;10.32;;;5.85;;
52438;SDS011;38359;53.150;6.504;2022-07-23T01:27:48;7.00;;;4.82;;
52438;SDS011;38359;53.150;6.504;2022-07-23T01:30:14;6.28;;;5.10;;
52438;SDS011;38359;53.150;6.504;2022-07-23T01:32:40;6.68;;;5.25;;
52438;SDS011;38359;53.150;6.504;2022-07-23T01:35:06;6.88;;;4.78;;
52438;SDS011;38359;53.150;6.504;2022-07-23T01:37:33;7.22;;;4.85;;
52438;SDS011;38359;53.150;6.504;2022-07-23T01:39:59;6.35;;;5.65;;
52438;SDS011;38359;53.150;6.504;2022-07-23T01:42:25;6.82;;;5.63;;
52438;SDS011;38359;53.150;6.504;2022-07-23T01:44:50;4.78;;;4.28;;
52438;SDS011;38359;53.150;6.504;2022-07-23T01:47:16;10.43;;;5.30;;
52438;SDS011;38359;53.150;6.504;2022-07-23T01:49:42;6.85;;;5.65;;
52438;SDS011;38359;53.150;6.504;2022-07-23T01:52:08;9.63;;;5.60;;
52438;SDS011;38359;53.150;6.504;2022-07-23T01:54:36;8.13;;;5.70;;
52438;SDS011;38359;53.150;6.504;2022-07-23T01:57:04;9.88;;;5.68;;
52438;SDS011;38359;53.150;6.504;2022-07-23T01:59:31;14.30;;;6.43;;
52438;SDS011;38359;53.150;6.504;2022-07-23T02:01:57;7.38;;;5.50;;
52438;SDS011;38359;53.150;6.504;2022-07-23T02:04:24;10.23;;;6.30;;
52438;SDS011;38359;53.150;6.504;2022-07-23T02:06:50;7.85;;;5.97;;
52438;SDS011;38359;53.150;6.504;2022-07-23T02:09:17;14.40;;;6.53;;
52438;SDS011;38359;53.150;6.504;2022-07-23T02:11:43;12.38;;;6.47;;
52438;SDS011;38359;53.150;6.504;2022-07-23T02:14:09;7.15;;;6.45;;
52438;SDS011;38359;53.150;6.504;2022-07-23T02:16:35;12.32;;;7.00;;
52438;SDS011;38359;53.150;6.504;2022-07-23T02:19:01;10.75;;;7.47;;
52438;SDS011;38359;53.150;6.504;2022-07-23T02:21:28;8.75;;;7.25;;
52438;SDS011;38359;53.150;6.504;2022-07-23T02:23:54;12.00;;;7.70;;
52438;SDS011;38359;53.150;6.504;2022-07-23T02:26:19;10.60;;;7.70;;
52438;SDS011;38359;53.150;6.504;2022-07-23T02:28:45;18.13;;;8.57;;
52438;SDS011;38359;53.150;6.504;2022-07-23T02:31:11;12.85;;;8.13;;
52438;SDS011;38359;53.150;6.504;2022-07-23T02:33:37;12.10;;;7.70;;
52438;SDS011;38359;53.150;6.504;2022-07-23T02:36:02;13.82;;;8.20;;
52438;SDS011;38359;53.150;6.504;2022-07-23T02:38:28;11.48;;;7.80;;
52438;SDS011;38359;53.150;6.504;2022-07-23T02:40:54;14.05;;;8.63;;
52438;SDS011;38359;53.150;6.504;2022-07-23T02:43:20;12.75;;;8.43;;
52438;SDS011;38359;53.150;6.504;2022-07-23T02:45:45;10.07;;;7.82;;
52438;SDS011;38359;53.150;6.504;2022-07-23T02:48:11;14.23;;;8.20;;
52438;SDS011;38359;53.150;6.504;2022-07-23T02:50:40;14.15;;;7.68;;
52438;SDS011;38359;53.150;6.504;2022-07-23T02:53:05;13.57;;;8.27;;
52438;SDS011;38359;53.150;6.504;2022-07-23T02:55:31;14.35;;;8.77;;
52438;SDS011;38359;53.150;6.504;2022-07-23T02:57:57;11.10;;;7.57;;
52438;SDS011;38359;53.150;6.504;2022-07-23T03:00:23;13.65;;;8.10;;
52438;SDS011;38359;53.150;6.504;2022-07-23T03:02:49;10.52;;;8.30;;
52438;SDS011;38359;53.150;6.504;2022-07-23T03:05:14;12.25;;;8.98;;
52438;SDS011;38359;53.150;6.504;2022-07-23T03:07:40;10.68;;;9.25;;
52438;SDS011;38359;53.150;6.504;2022-07-23T03:10:06;13.57;;;8.27;;
52438;SDS011;38359;53.150;6.504;2022-07-23T03:12:32;10.23;;;8.65;;
52438;SDS011;38359;53.150;6.504;2022-07-23T03:14:58;9.10;;;7.78;;
52438;SDS011;38359;53.150;6.504;2022-07-23T03:17:24;10.88;;;8.25;;
52438;SDS011;38359;53.150;6.504;2022-07-23T03:19:50;15.93;;;8.43;;
52438;SDS011;38359;53.150;6.504;2022-07-23T03:22:15;13.23;;;9.38;;
52438;SDS011;38359;53.150;6.504;2022-07-23T03:24:41;12.52;;;8.82;;
52438;SDS011;38359;53.150;6.504;2022-07-23T03:27:19;12.65;;;9.40;;
52438;SDS011;38359;53.150;6.504;2022-07-23T03:29:50;13.70;;;9.63;;
52438;SDS011;38359;53.150;6.504;2022-07-23T03:32:17;13.20;;;8.75;;
52438;SDS011;38359;53.150;6.504;2022-07-23T03:34:43;11.95;;;8.85;;
52438;SDS011;38359;53.150;6.504;2022-07-23T03:37:09;11.20;;;8.90;;
52438;SDS011;38359;53.150;6.504;2022-07-23T03:39:35;13.20;;;8.90;;
52438;SDS011;38359;53.150;6.504;2022-07-23T03:42:00;10.25;;;9.02;;
52438;SDS011;38359;53.150;6.504;2022-07-23T03:44:28;14.32;;;9.60;;
52438;SDS011;38359;53.150;6.504;2022-07-23T03:46:53;12.77;;;9.60;;
52438;SDS011;38359;53.150;6.504;2022-07-23T03:49:19;10.05;;;8.93;;
52438;SDS011;38359;53.150;6.504;2022-07-23T03:51:45;11.40;;;8.63;;
52438;SDS011;38359;53.150;6.504;2022-07-23T03:54:11;10.50;;;9.10;;
52438;SDS011;38359;53.150;6.504;2022-07-23T03:56:37;10.70;;;8.18;;
52438;SDS011;38359;53.150;6.504;2022-07-23T03:59:03;11.98;;;8.48;;
52438;SDS011;38359;53.150;6.504;2022-07-23T04:01:29;15.43;;;8.57;;
52438;SDS011;38359;53.150;6.504;2022-07-23T04:03:54;8.95;;;8.02;;
52438;SDS011;38359;53.150;6.504;2022-07-23T04:06:20;9.90;;;8.52;;
52438;SDS011;38359;53.150;6.504;2022-07-23T04:08:47;10.05;;;8.05;;
52438;SDS011;38359;53.150;6.504;2022-07-23T04:11:13;10.20;;;8.43;;
52438;SDS011;38359;53.150;6.504;2022-07-23T04:13:39;9.70;;;7.85;;
52438;SDS011;38359;53.150;6.504;2022-07-23T04:16:05;10.98;;;7.90;;
52438;SDS011;38359;53.150;6.504;2022-07-23T04:18:31;11.13;;;7.93;;
52438;SDS011;38359;53.150;6.504;2022-07-23T04:20:57;11.00;;;7.85;;
52438;SDS011;38359;53.150;6.504;2022-07-23T04:23:22;11.10;;;7.95;;
52438;SDS011;38359;53.150;6.504;2022-07-23T04:25:48;9.48;;;7.70;;
52438;SDS011;38359;53.150;6.504;2022-07-23T04:28:14;13.70;;;7.57;;
52438;SDS011;38359;53.150;6.504;2022-07-23T04:30:40;9.35;;;6.65;;
52438;SDS011;38359;53.150;6.504;2022-07-23T04:33:06;7.90;;;7.05;;
52438;SDS011;38359;53.150;6.504;2022-07-23T04:35:35;9.90;;;6.57;;
52438;SDS011;38359;53.150;6.504;2022-07-23T04:38:02;11.07;;;6.43;;
52438;SDS011;38359;53.150;6.504;2022-07-23T04:40:28;11.32;;;6.25;;
52438;SDS011;38359;53.150;6.504;2022-07-23T04:42:55;12.60;;;6.95;;
52438;SDS011;38359;53.150;6.504;2022-07-23T04:45:21;15.10;;;6.80;;
52438;SDS011;38359;53.150;6.504;2022-07-23T04:47:48;8.25;;;6.05;;
52438;SDS011;38359;53.150;6.504;2022-07-23T04:50:14;8.98;;;5.70;;
52438;SDS011;38359;53.150;6.504;2022-07-23T04:52:44;8.50;;;6.25;;
52438;SDS011;38359;53.150;6.504;2022-07-23T04:55:10;11.90;;;6.28;;
52438;SDS011;38359;53.150;6.504;2022-07-23T04:57:36;7.43;;;6.18;;
52438;SDS011;38359;53.150;6.504;2022-07-23T05:00:02;7.57;;;5.68;;
52438;SDS011;38359;53.150;6.504;2022-07-23T05:02:29;15.38;;;6.45;;
52438;SDS011;38359;53.150;6.504;2022-07-23T05:04:55;7.32;;;5.55;;
52438;SDS011;38359;53.150;6.504;2022-07-23T05:07:20;7.15;;;6.13;;
52438;SDS011;38359;53.150;6.504;2022-07-23T05:09:46;7.25;;;5.38;;
52438;SDS011;38359;53.150;6.504;2022-07-23T05:12:12;7.97;;;5.30;;
52438;SDS011;38359;53.150;6.504;2022-07-23T05:14:38;9.13;;;5.45;;
52438;SDS011;38359;53.150;6.504;2022-07-23T05:17:04;10.65;;;5.15;;
52438;SDS011;38359;53.150;6.504;2022-07-23T05:19:29;11.93;;;5.35;;
52438;SDS011;38359;53.150;6.504;2022-07-23T05:21:55;6.40;;;4.93;;
52438;SDS011;38359;53.150;6.504;2022-07-23T05:24:21;14.90;;;5.03;;
52438;SDS011;38359;53.150;6.504;2022-07-23T05:26:47;11.23;;;5.68;;
52438;SDS011;38359;53.150;6.504;2022-07-23T05:29:13;6.65;;;4.72;;
52438;SDS011;38359;53.150;6.504;2022-07-23T05:31:38;8.38;;;4.93;;
52438;SDS011;38359;53.150;6.504;2022-07-23T05:34:04;7.78;;;4.88;;
52438;SDS011;38359;53.150;6.504;2022-07-23T05:36:31;7.88;;;4.55;;
52438;SDS011;38359;53.150;6.504;2022-07-23T05:38:57;6.30;;;4.18;;
52438;SDS011;38359;53.150;6.504;2022-07-23T05:41:23;6.35;;;4.30;;
52438;SDS011;38359;53.150;6.504;2022-07-23T05:43:49;6.35;;;4.63;;
52438;SDS011;38359;53.150;6.504;2022-07-23T05:46:15;7.68;;;3.95;;
52438;SDS011;38359;53.150;6.504;2022-07-23T05:48:41;6.70;;;3.90;;
52438;SDS011;38359;53.150;6.504;2022-07-23T05:51:07;4.13;;;3.60;;
52438;SDS011;38359;53.150;6.504;2022-07-23T05:53:34;4.28;;;3.28;;
52438;SDS011;38359;53.150;6.504;2022-07-23T05:56:00;8.52;;;3.67;;
52438;SDS011;38359;53.150;6.504;2022-07-23T05:58:26;4.18;;;3.30;;
52438;SDS011;38359;53.150;6.504;2022-07-23T06:00:52;7.55;;;3.55;;
52438;SDS011;38359;53.150;6.504;2022-07-23T06:03:18;7.95;;;2.92;;
52438;SDS011;38359;53.150;6.504;2022-07-23T06:05:44;6.40;;;2.65;;
52438;SDS011;38359;53.150;6.504;2022-07-23T06:08:11;8.70;;;3.42;;
52438;SDS011;38359;53.150;6.504;2022-07-23T06:10:37;6.38;;;2.55;;
52438;SDS011;38359;53.150;6.504;2022-07-23T06:13:03;4.63;;;2.53;;
52438;SDS011;38359;53.150;6.504;2022-07-23T06:15:28;3.63;;;2.60;;
52438;SDS011;38359;53.150;6.504;2022-07-23T06:17:55;4.25;;;1.95;;
52438;SDS011;38359;53.150;6.504;2022-07-23T06:20:22;6.15;;;3.10;;
52438;SDS011;38359;53.150;6.504;2022-07-23T06:22:48;2.80;;;1.90;;
52438;SDS011;38359;53.150;6.504;2022-07-23T06:25:13;4.80;;;2.35;;
52438;SDS011;38359;53.150;6.504;2022-07-23T06:27:41;6.63;;;2.45;;
52438;SDS011;38359;53.150;6.504;2022-07-23T06:30:07;3.50;;;1.98;;
52438;SDS011;38359;53.150;6.504;2022-07-23T06:32:35;4.15;;;2.20;;
52438;SDS011;38359;53.150;6.504;2022-07-23T06:35:01;5.70;;;2.45;;
52438;SDS011;38359;53.150;6.504;2022-07-23T06:37:27;4.30;;;1.98;;
52438;SDS011;38359;53.150;6.504;2022-07-23T06:39:52;4.43;;;2.20;;
52438;SDS011;38359;53.150;6.504;2022-07-23T06:42:18;3.42;;;2.55;;
52438;SDS011;38359;53.150;6.504;2022-07-23T06:44:44;5.72;;;2.10;;
52438;SDS011;38359;53.150;6.504;2022-07-23T06:47:10;3.22;;;2.10;;
52438;SDS011;38359;53.150;6.504;2022-07-23T06:49:35;2.40;;;1.80;;
52438;SDS011;38359;53.150;6.504;2022-07-23T06:52:01;2.90;;;1.90;;
52438;SDS011;38359;53.150;6.504;2022-07-23T06:54:27;4.82;;;1.67;;
52438;SDS011;38359;53.150;6.504;2022-07-23T06:56:53;3.38;;;1.38;;
52438;SDS011;38359;53.150;6.504;2022-07-23T06:59:19;1.23;;;1.00;;
52438;SDS011;38359;53.150;6.504;2022-07-23T07:01:45;2.35;;;1.15;;
52438;SDS011;38359;53.150;6.504;2022-07-23T07:04:10;2.03;;;0.88;;
52438;SDS011;38359;53.150;6.504;2022-07-23T07:06:36;2.20;;;0.93;;
52438;SDS011;38359;53.150;6.504;2022-07-23T07:09:02;2.00;;;0.77;;
52438;SDS011;38359;53.150;6.504;2022-07-23T07:11:28;1.02;;;0.60;;
52438;SDS011;38359;53.150;6.504;2022-07-23T07:13:53;1.17;;;1.08;;
52438;SDS011;38359;53.150;6.504;2022-07-23T07:16:19;0.88;;;0.57;;
52438;SDS011;38359;53.150;6.504;2022-07-23T07:18:45;2.65;;;0.68;;
52438;SDS011;38359;53.150;6.504;2022-07-23T07:21:11;3.00;;;0.55;;
52438;SDS011;38359;53.150;6.504;2022-07-23T07:23:37;2.92;;;0.73;;
52438;SDS011;38359;53.150;6.504;2022-07-23T07:26:02;2.53;;;0.60;;
52438;SDS011;38359;53.150;6.504;2022-07-23T07:28:28;0.60;;;0.60;;
52438;SDS011;38359;53.150;6.504;2022-07-23T07:30:54;1.77;;;0.75;;
52438;SDS011;38359;53.150;6.504;2022-07-23T07:33:20;1.23;;;0.70;;
52438;SDS011;38359;53.150;6.504;2022-07-23T07:35:46;6.97;;;1.00;;
52438;SDS011;38359;53.150;6.504;2022-07-23T07:38:12;2.33;;;0.90;;
52438;SDS011;38359;53.150;6.504;2022-07-23T07:40:38;4.10;;;0.80;;
52438;SDS011;38359;53.150;6.504;2022-07-23T07:43:04;1.25;;;0.68;;
52438;SDS011;38359;53.150;6.504;2022-07-23T07:45:29;2.08;;;0.80;;
52438;SDS011;38359;53.150;6.504;2022-07-23T07:47:57;2.75;;;0.73;;
52438;SDS011;38359;53.150;6.504;2022-07-23T07:50:23;2.20;;;0.60;;
52438;SDS011;38359;53.150;6.504;2022-07-23T07:52:49;1.98;;;0.68;;
52438;SDS011;38359;53.150;6.504;2022-07-23T07:55:15;0.95;;;0.50;;
52438;SDS011;38359;53.150;6.504;2022-07-23T07:57:41;0.52;;;0.52;;
52438;SDS011;38359;53.150;6.504;2022-07-23T08:00:07;1.85;;;0.68;;
52438;SDS011;38359;53.150;6.504;2022-07-23T08:02:45;1.42;;;0.60;;
52438;SDS011;38359;53.150;6.504;2022-07-23T08:05:14;0.82;;;0.80;;
52438;SDS011;38359;53.150;6.504;2022-07-23T08:07:46;2.20;;;0.82;;
52438;SDS011;38359;53.150;6.504;2022-07-23T08:10:11;0.75;;;0.60;;
52438;SDS011;38359;53.150;6.504;2022-07-23T08:12:41;1.17;;;0.60;;
52438;SDS011;38359;53.150;6.504;2022-07-23T08:15:11;2.33;;;0.80;;
52438;SDS011;38359;53.150;6.504;2022-07-23T08:17:42;2.20;;;0.70;;
52438;SDS011;38359;53.150;6.504;2022-07-23T08:20:09;0.60;;;0.60;;
52438;SDS011;38359;53.150;6.504;2022-07-23T08:22:53;4.03;;;0.60;;
52438;SDS011;38359;53.150;6.504;2022-07-23T08:25:37;1.00;;;0.70;;
52438;SDS011;38359;53.150;6.504;2022-07-23T08:28:07;1.00;;;0.52;;
52438;SDS011;38359;53.150;6.504;2022-07-23T08:30:36;1.48;;;0.70;;
52438;SDS011;38359;53.150;6.504;2022-07-23T08:33:03;1.50;;;0.57;;
52438;SDS011;38359;53.150;6.504;2022-07-23T08:35:34;1.70;;;0.63;;
52438;SDS011;38359;53.150;6.504;2022-07-23T08:38:05;0.82;;;0.63;;
52438;SDS011;38359;53.150;6.504;2022-07-23T08:40:37;1.65;;;0.60;;
52438;SDS011;38359;53.150;6.504;2022-07-23T08:43:07;1.40;;;0.65;;
52438;SDS011;38359;53.150;6.504;2022-07-23T08:45:37;2.80;;;0.70;;
52438;SDS011;38359;53.150;6.504;2022-07-23T08:48:15;1.85;;;0.68;;
52438;SDS011;38359;53.150;6.504;2022-07-23T08:50:50;3.92;;;0.73;;
52438;SDS011;38359;53.150;6.504;2022-07-23T08:53:22;2.00;;;0.57;;
52438;SDS011;38359;53.150;6.504;2022-07-23T08:55:51;1.42;;;0.70;;
52438;SDS011;38359;53.150;6.504;2022-07-23T08:58:19;1.73;;;0.80;;
52438;SDS011;38359;53.150;6.504;2022-07-23T09:00:46;1.13;;;0.70;;
52438;SDS011;38359;53.150;6.504;2022-07-23T09:03:16;0.82;;;0.60;;
52438;SDS011;38359;53.150;6.504;2022-07-23T09:06:01;1.20;;;0.90;;
52438;SDS011;38359;53.150;6.504;2022-07-23T09:08:35;2.63;;;0.70;;
52438;SDS011;38359;53.150;6.504;2022-07-23T09:11:10;3.00;;;0.90;;
52438;SDS011;38359;53.150;6.504;2022-07-23T09:13:55;3.30;;;0.88;;
52438;SDS011;38359;53.150;6.504;2022-07-23T09:16:25;1.27;;;0.50;;
52438;SDS011;38359;53.150;6.504;2022-07-23T09:18:58;3.40;;;0.80;;
52438;SDS011;38359;53.150;6.504;2022-07-23T09:21:30;2.15;;;0.70;;
52438;SDS011;38359;53.150;6.504;2022-07-23T09:24:04;1.40;;;0.63;;
52438;SDS011;38359;53.150;6.504;2022-07-23T09:31:50;1.88;;;0.68;;
52438;SDS011;38359;53.150;6.504;2022-07-23T09:34:30;2.85;;;0.70;;
52438;SDS011;38359;53.150;6.504;2022-07-23T09:37:10;4.90;;;1.42;;
52438;SDS011;38359;53.150;6.504;2022-07-23T09:39:42;5.43;;;1.08;;
52438;SDS011;38359;53.150;6.504;2022-07-23T09:44:43;3.78;;;0.98;;
52438;SDS011;38359;53.150;6.504;2022-07-23T09:47:11;3.97;;;0.90;;
52438;SDS011;38359;53.150;6.504;2022-07-23T09:49:37;5.70;;;1.02;;
52438;SDS011;38359;53.150;6.504;2022-07-23T09:52:03;2.25;;;0.70;;
52438;SDS011;38359;53.150;6.504;2022-07-23T09:54:33;1.48;;;0.88;;
52438;SDS011;38359;53.150;6.504;2022-07-23T09:57:12;3.50;;;0.88;;
52438;SDS011;38359;53.150;6.504;2022-07-23T09:59:41;2.45;;;1.00;;
52438;SDS011;38359;53.150;6.504;2022-07-23T10:02:09;5.22;;;0.90;;
52438;SDS011;38359;53.150;6.504;2022-07-23T10:04:37;2.83;;;1.05;;
52438;SDS011;38359;53.150;6.504;2022-07-23T10:07:05;3.78;;;1.00;;
52438;SDS011;38359;53.150;6.504;2022-07-23T10:09:35;1.42;;;0.70;;
52438;SDS011;38359;53.150;6.504;2022-07-23T10:12:13;1.83;;;0.88;;
52438;SDS011;38359;53.150;6.504;2022-07-23T10:14:42;2.13;;;0.88;;
52438;SDS011;38359;53.150;6.504;2022-07-23T10:17:08;2.50;;;0.73;;
52438;SDS011;38359;53.150;6.504;2022-07-23T10:19:35;2.72;;;0.80;;
52438;SDS011;38359;53.150;6.504;2022-07-23T10:22:08;2.33;;;0.95;;
52438;SDS011;38359;53.150;6.504;2022-07-23T10:30:52;6.70;;;0.80;;
52438;SDS011;38359;53.150;6.504;2022-07-23T10:33:55;2.53;;;0.85;;
52438;SDS011;38359;53.150;6.504;2022-07-23T10:36:42;4.82;;;1.08;;
52438;SDS011;38359;53.150;6.504;2022-07-23T10:39:24;2.17;;;0.73;;
52438;SDS011;38359;53.150;6.504;2022-07-23T10:42:07;2.28;;;0.70;;
52438;SDS011;38359;53.150;6.504;2022-07-23T10:44:42;1.35;;;0.80;;
52438;SDS011;38359;53.150;6.504;2022-07-23T10:47:12;4.78;;;0.90;;
52438;SDS011;38359;53.150;6.504;2022-07-23T10:50:17;4.45;;;0.90;;
52438;SDS011;38359;53.150;6.504;2022-07-23T10:55:43;5.75;;;1.05;;
52438;SDS011;38359;53.150;6.504;2022-07-23T10:58:13;3.05;;;0.98;;
52438;SDS011;38359;53.150;6.504;2022-07-23T11:00:49;1.02;;;0.88;;
52438;SDS011;38359;53.150;6.504;2022-07-23T11:03:27;2.13;;;0.90;;
52438;SDS011;38359;53.150;6.504;2022-07-23T11:06:04;3.03;;;1.00;;
52438;SDS011;38359;53.150;6.504;2022-07-23T11:08:30;3.63;;;1.00;;
52438;SDS011;38359;53.150;6.504;2022-07-23T11:13:28;2.50;;;1.40;;
52438;SDS011;38359;53.150;6.504;2022-07-23T11:31:54;1.60;;;1.08;;
52438;SDS011;38359;53.150;6.504;2022-07-23T11:37:12;1.65;;;1.10;;
52438;SDS011;38359;53.150;6.504;2022-07-23T11:39:54;2.00;;;1.10;;
52438;SDS011;38359;53.150;6.504;2022-07-23T11:42:21;1.98;;;1.13;;
52438;SDS011;38359;53.150;6.504;2022-07-23T11:44:48;2.78;;;1.27;;
52438;SDS011;38359;53.150;6.504;2022-07-23T11:47:14;1.60;;;1.15;;
52438;SDS011;38359;53.150;6.504;2022-07-23T11:49:52;1.42;;;1.13;;
52438;SDS011;38359;53.150;6.504;2022-07-23T11:52:19;3.10;;;1.27;;
52438;SDS011;38359;53.150;6.504;2022-07-23T11:54:47;1.77;;;1.00;;
52438;SDS011;38359;53.150;6.504;2022-07-23T11:57:17;2.20;;;1.10;;
52438;SDS011;38359;53.150;6.504;2022-07-23T11:59:45;2.10;;;1.05;;
52438;SDS011;38359;53.150;6.504;2022-07-23T12:02:14;3.05;;;0.90;;
52438;SDS011;38359;53.150;6.504;2022-07-23T12:04:44;4.38;;;1.38;;
52438;SDS011;38359;53.150;6.504;2022-07-23T12:07:28;1.80;;;1.15;;
52438;SDS011;38359;53.150;6.504;2022-07-23T12:12:39;2.47;;;1.10;;
52438;SDS011;38359;53.150;6.504;2022-07-23T12:15:15;1.67;;;1.10;;
52438;SDS011;38359;53.150;6.504;2022-07-23T12:17:46;4.40;;;1.08;;
52438;SDS011;38359;53.150;6.504;2022-07-23T12:20:14;2.75;;;1.35;;
52438;SDS011;38359;53.150;6.504;2022-07-23T12:22:50;3.55;;;1.20;;
52438;SDS011;38359;53.150;6.504;2022-07-23T12:25:21;2.50;;;1.17;;
52438;SDS011;38359;53.150;6.504;2022-07-23T12:28:06;4.63;;;1.38;;
52438;SDS011;38359;53.150;6.504;2022-07-23T12:33:13;1.98;;;1.17;;
52438;SDS011;38359;53.150;6.504;2022-07-23T12:36:09;6.03;;;1.20;;
52438;SDS011;38359;53.150;6.504;2022-07-23T12:38:37;1.73;;;1.05;;
52438;SDS011;38359;53.150;6.504;2022-07-23T12:41:16;1.92;;;1.10;;
52438;SDS011;38359;53.150;6.504;2022-07-23T12:43:43;3.58;;;1.27;;
52438;SDS011;38359;53.150;6.504;2022-07-23T12:46:18;3.25;;;1.33;;
52438;SDS011;38359;53.150;6.504;2022-07-23T12:53:56;4.65;;;1.23;;
52438;SDS011;38359;53.150;6.504;2022-07-23T12:56:30;2.60;;;1.27;;
52438;SDS011;38359;53.150;6.504;2022-07-23T12:59:09;3.92;;;1.30;;
52438;SDS011;38359;53.150;6.504;2022-07-23T13:01:41;2.35;;;1.23;;
52438;SDS011;38359;53.150;6.504;2022-07-23T13:04:19;1.10;;;1.00;;
52438;SDS011;38359;53.150;6.504;2022-07-23T13:09:19;3.00;;;1.17;;
52438;SDS011;38359;53.150;6.504;2022-07-23T13:11:50;2.33;;;1.10;;
52438;SDS011;38359;53.150;6.504;2022-07-23T13:14:19;2.83;;;1.15;;
52438;SDS011;38359;53.150;6.504;2022-07-23T13:16:46;1.63;;;0.98;;
52438;SDS011;38359;53.150;6.504;2022-07-23T13:19:14;2.22;;;1.08;;
52438;SDS011;38359;53.150;6.504;2022-07-23T13:21:41;1.65;;;1.00;;
52438;SDS011;38359;53.150;6.504;2022-07-23T13:24:08;1.65;;;1.08;;
52438;SDS011;38359;53.150;6.504;2022-07-23T13:26:35;2.58;;;1.20;;
52438;SDS011;38359;53.150;6.504;2022-07-23T13:29:02;2.25;;;1.23;;
52438;SDS011;38359;53.150;6.504;2022-07-23T13:31:29;1.95;;;1.00;;
52438;SDS011;38359;53.150;6.504;2022-07-23T13:33:55;1.77;;;0.95;;
52438;SDS011;38359;53.150;6.504;2022-07-23T13:36:20;5.38;;;1.10;;
52438;SDS011;38359;53.150;6.504;2022-07-23T13:38:46;5.18;;;1.05;;
52438;SDS011;38359;53.150;6.504;2022-07-23T13:41:12;2.20;;;1.10;;
52438;SDS011;38359;53.150;6.504;2022-07-23T13:43:38;3.38;;;1.00;;
52438;SDS011;38359;53.150;6.504;2022-07-23T13:46:04;1.45;;;1.13;;
52438;SDS011;38359;53.150;6.504;2022-07-23T13:48:29;2.53;;;1.20;;
52438;SDS011;38359;53.150;6.504;2022-07-23T13:50:55;1.27;;;0.90;;
52438;SDS011;38359;53.150;6.504;2022-07-23T13:53:22;2.70;;;1.35;;
52438;SDS011;38359;53.150;6.504;2022-07-23T13:55:49;2.70;;;1.00;;
52438;SDS011;38359;53.150;6.504;2022-07-23T13:58:17;1.00;;;0.90;;
52438;SDS011;38359;53.150;6.504;2022-07-23T14:00:44;1.85;;;0.98;;
52438;SDS011;38359;53.150;6.504;2022-07-23T14:03:13;2.35;;;1.05;;
52438;SDS011;38359;53.150;6.504;2022-07-23T14:05:41;1.17;;;0.85;;
52438;SDS011;38359;53.150;6.504;2022-07-23T14:08:07;1.85;;;1.00;;
52438;SDS011;38359;53.150;6.504;2022-07-23T14:10:35;1.25;;;1.00;;
52438;SDS011;38359;53.150;6.504;2022-07-23T14:13:02;2.25;;;1.08;;
52438;SDS011;38359;53.150;6.504;2022-07-23T14:15:29;2.03;;;1.10;;
52438;SDS011;38359;53.150;6.504;2022-07-23T14:17:56;2.13;;;1.13;;
52438;SDS011;38359;53.150;6.504;2022-07-23T14:20:22;1.00;;;0.80;;
52438;SDS011;38359;53.150;6.504;2022-07-23T14:22:49;4.88;;;1.00;;
52438;SDS011;38359;53.150;6.504;2022-07-23T14:25:15;1.25;;;0.90;;
52438;SDS011;38359;53.150;6.504;2022-07-23T14:27:43;1.77;;;1.00;;
52438;SDS011;38359;53.150;6.504;2022-07-23T14:30:11;2.72;;;1.23;;
52438;SDS011;38359;53.150;6.504;2022-07-23T14:32:37;1.70;;;1.10;;
52438;SDS011;38359;53.150;6.504;2022-07-23T14:35:03;3.53;;;1.00;;
52438;SDS011;38359;53.150;6.504;2022-07-23T14:37:30;3.15;;;0.95;;
52438;SDS011;38359;53.150;6.504;2022-07-23T14:39:56;2.42;;;1.00;;
52438;SDS011;38359;53.150;6.504;2022-07-23T14:42:22;1.90;;;1.02;;
52438;SDS011;38359;53.150;6.504;2022-07-23T14:44:48;2.25;;;1.00;;
52438;SDS011;38359;53.150;6.504;2022-07-23T14:47:14;1.42;;;0.77;;
52438;SDS011;38359;53.150;6.504;2022-07-23T14:49:41;2.55;;;0.90;;
52438;SDS011;38359;53.150;6.504;2022-07-23T14:52:07;2.60;;;0.90;;
52438;SDS011;38359;53.150;6.504;2022-07-23T14:54:33;1.30;;;0.90;;
52438;SDS011;38359;53.150;6.504;2022-07-23T14:56:59;1.10;;;0.90;;
52438;SDS011;38359;53.150;6.504;2022-07-23T14:59:27;2.03;;;0.95;;
52438;SDS011;38359;53.150;6.504;2022-07-23T15:01:55;3.22;;;1.00;;
52438;SDS011;38359;53.150;6.504;2022-07-23T15:04:22;2.55;;;1.02;;
52438;SDS011;38359;53.150;6.504;2022-07-23T15:06:47;4.70;;;1.00;;
52438;SDS011;38359;53.150;6.504;2022-07-23T15:09:13;1.35;;;1.15;;
52438;SDS011;38359;53.150;6.504;2022-07-23T15:11:39;1.52;;;1.10;;
52438;SDS011;38359;53.150;6.504;2022-07-23T15:14:06;3.50;;;1.00;;
52438;SDS011;38359;53.150;6.504;2022-07-23T15:16:33;3.72;;;1.00;;
52438;SDS011;38359;53.150;6.504;2022-07-23T15:18:59;2.08;;;1.00;;
52438;SDS011;38359;53.150;6.504;2022-07-23T15:21:26;1.50;;;0.80;;
52438;SDS011;38359;53.150;6.504;2022-07-23T15:23:54;2.45;;;1.00;;
52438;SDS011;38359;53.150;6.504;2022-07-23T15:26:23;2.22;;;0.98;;
52438;SDS011;38359;53.150;6.504;2022-07-23T15:28:51;1.95;;;0.90;;
52438;SDS011;38359;53.150;6.504;2022-07-23T15:31:16;1.42;;;0.90;;
52438;SDS011;38359;53.150;6.504;2022-07-23T15:33:42;1.63;;;1.05;;
52438;SDS011;38359;53.150;6.504;2022-07-23T15:36:08;1.52;;;1.00;;
52438;SDS011;38359;53.150;6.504;2022-07-23T15:38:34;1.00;;;0.70;;
52438;SDS011;38359;53.150;6.504;2022-07-23T15:41:00;1.58;;;0.80;;
52438;SDS011;38359;53.150;6.504;2022-07-23T15:43:26;2.95;;;1.00;;